Aérodrome :
LOGIN :

S'inscrire | Disclaimer

   EN    FR    IT 

 










Légende :    VFR   VFR Marginal   IFR   IFR Intensif   IFR Très Intensif
Visi : 
Plafond : 
>= 8 km
>= 3000ft
5 à 8 km
1000 à 3000 ft
1500m à 5 km
500 à 1000 ft
800 à 1500m
200 à 500 ft
< 800m
< 200 ft
Symboles :   Orages  Brouillard  Fortes neiges  Fortes précipitations  Vent > 20 kt
SIGMETs :   Divers  Orages  Givrage  Turbulence  Onde Orograph.  Cendres Volcan.







- Altitude de l'aérodrome : 392 ft
- Code IATA : CDG
- Voir les cartes d'approche


LFPG - Paris-Aeroport Charles De Gaulle

DERNIER METAR :
  • 222130Z 31003KT 8000 NSC 16/14 Q1016 NOSIG

METARs EXPIRÉS :
  • 222100Z 32003KT 8000 NSC 17/14 Q1015 NOSIG
  • 222030Z 32004KT CAVOK 17/14 Q1015 NOSIG
  • 222000Z 31003KT 9999 FEW035 SCT048 BKN260 17/14 Q1015 NOSIG
  • 221930Z 34003KT 9999 FEW035 SCT130 BKN260 18/14 Q1015 NOSIG
  • 221900Z 02005KT 9999 FEW035CB SCT130 BKN230 18/15 Q1014 NOSIG

TAF AMD TAF LFPG
Valide du 22 à 18h jusqu'au 24 à 00h UTC


221836Z 2218/2324 32005KT 9999 FEW035CB
BECMG 2218/2220 CAVOK
PROB30
TEMPO 2218/2220 -TSRA
PROB40
TEMPO 2303/2306 4000 BR BKN008
TEMPO 2310/2320 4000 SHRA SCT030TCU
PROB40
TEMPO 2313/2316 VRB10G25KT 2000 TSRAGR SCT035CB TX22/2313Z TN12/2303Z
ATIS : +33 1 48 62 10 92
Pas de NOTAMs connus pour ce terrain.



MET'MAP, la Météo Aéronautique d'un coup d'oeil ! - Copyright ORBIFLY Décembre 2007 - Disclaimer

ORBIFLY MET'MAP TEAM :

Programmation & Développement : Alexandra Zaïnal
Conception & Développement : Baudouin d'Aumeries
Co-Programmation & Développement : Marc-Olivier Méhu
Soutien technique & logistique : Manuel Goepfert

Contact : metmap@orbifly.com




SOURCES & CREDITS :

   NOAA